Time;durP1;ratioP1;P1;durP2;ratioP2;P2;SDS_P1;SDS_P2;PMS_P1;PMS_P2;Temp;Humidity;BMP_temperature;BMP_pressure;BME280_temperature;BME280_humidity;BME280_pressure;Samples;Min_cycle;Max_cycle;Signal;HPM_P1;HPM_P2
2021/10/17 00:01:23;;;;;;;64.4;53.4;;;;;;;3.2818;83.54624;99312;;;;
2021/10/17 00:21:19;;;;;;;56;50.2;;;;;;;2.961723;83.4753;99320;;;;
2021/10/17 00:31:17;;;;;;;55;49.3;;;;;;;2.772295;83.11923;99314;;;;
2021/10/17 00:51:13;;;;;;;47.2;42.7;;;;;;;2.621991;83.49545;99305;;;;
2021/10/17 01:01:11;;;;;;;48.95;42.6;;;;;;;2.562143;83.38238;99303;;;;
2021/10/17 01:11:09;;;;;;;47;42;;;;;;;2.5718;83.58892;99303;;;;
2021/10/17 01:21:06;;;;;;;46.6;40.6;;;;;;;2.572181;83.63739;99301;;;;
2021/10/17 01:31:05;;;;;;;50.1;42.7;;;;;;;2.642067;84.21812;99303;;;;
2021/10/17 01:41:03;;;;;;;54.05;45.05;;;;;;;2.722295;84.06956;99293;;;;
2021/10/17 01:51:00;;;;;;;48.6;43.5;;;;;;;2.852105;84.2718;99293;;;;
2021/10/17 02:00:59;;;;;;;47;42;;;;;;;2.962067;84.37531;99289;;;;
2021/10/17 02:10:57;;;;;;;44.85;39.85;;;;;;;3.111799;84.52962;99283;;;;
2021/10/17 02:20:54;;;;;;;53.2;42.4;;;;;;;3.121838;84.43447;99293;;;;
2021/10/17 02:30:53;;;;;;;48.05;39.6;;;;;;;3.131991;83.80502;99285;;;;
2021/10/17 02:40:51;;;;;;;47.3;38.76667;;;;;;;3.051991;83.58363;99279;;;;
2021/10/17 02:50:49;;;;;;;41.9;34.2;;;;;;;2.891723;83.16663;99251;;;;
2021/10/17 03:00:47;;;;;;;40.55;34.55;;;;;;;2.721761;83.02435;99251;;;;
2021/10/17 03:10:45;;;;;;;40.16667;33.86667;;;;;;;2.551761;83.19973;99251;;;;
2021/10/17 03:20:43;;;;;;;34.9;31.3;;;;;;;2.361799;83.04544;99253;;;;
2021/10/17 03:30:41;;;;;;;37.65;31.45;;;;;;;2.172181;83.12179;99247;;;;
2021/10/17 03:40:39;;;;;;;38.1;31.2;;;;;;;1.951914;83.09553;99247;;;;
2021/10/17 03:50:37;;;;;;;38.7;30.33334;;;;;;;1.782105;83.49036;99242;;;;
2021/10/17 04:00:34;;;;;;;47.4;35.4;;;;;;;1.522067;83.6088;99243;;;;
2021/10/17 04:20:30;;;;;;;44.9;34.3;;;;;;;1.361838;83.89878;99243;;;;
2021/10/17 04:30:28;;;;;;;34.4;30.7;;;;;;;1.331914;84.32845;99238;;;;
2021/10/17 04:40:26;;;;;;;34.7;27.9;;;;;;;1.101838;83.8983;99243;;;;
2021/10/17 04:50:24;;;;;;;35;29.8;;;;;;;0.982105;83.87357;99242;;;;
2021/10/17 05:00:21;;;;;;;33.5;29.9;;;;;;;0.832143;83.79265;99245;;;;
2021/10/17 05:20:17;;;;;;;35.3;31.6;;;;;;;0.751876;84.0769;99273;;;;
2021/10/17 05:30:15;;;;;;;32.6;29.25;;;;;;;0.941761;84.65905;99285;;;;
2021/10/17 05:40:13;;;;;;;28.5;21.4;;;;;;;1.281914;85.37907;99293;;;;
2021/10/17 05:50:10;;;;;;;24.7;17.8;;;;;;;1.921914;86.26679;99301;;;;
2021/10/17 06:00:08;;;;;;;16.5;14.7;;;;;;;2.491761;86.2769;99309;;;;
2021/10/17 06:10:08;;;;;;;16.3;13.8;;;;;;;3.061914;85.942;99316;;;;
2021/10/17 06:20:04;;;;;;;17.4;12.6;;;;;;;3.532219;83.87529;99322;;;;
2021/10/17 06:30:02;;;;;;;18.5;13.3;;;;;;;4.052105;84.2458;99322;;;;
2021/10/17 06:40:00;;;;;;;18.3;13.6;;;;;;;4.611952;83.25822;99326;;;;
2021/10/17 06:49:58;;;;;;;16.2;12.1;;;;;;;5.161991;82.20384;99334;;;;
2021/10/17 06:59:56;;;;;;;20.8;13.8;;;;;;;5.442181;78.46302;99334;;;;
2021/10/17 07:09:55;;;;;;;19.35;13.1;;;;;;;5.831838;77.14927;99334;;;;
2021/10/17 07:19:53;;;;;;;24.9;11.9;;;;;;;5.95;74.849;99338;;;;
2021/10/17 07:29:51;;;;;;;19;10.5;;;;;;;6.3518;74.68033;99344;;;;
2021/10/17 07:39:50;;;;;;;15.8;14.1;;;;;;;6.73;73.165;99340;;;;
2021/10/17 07:49:48;;;;;;;14.25;12.15;;;;;;;7.261684;72.84981;99342;;;;
2021/10/17 07:59:46;;;;;;;10.4;9.3;;;;;;;7.511799;72.2718;99340;;;;
2021/10/17 08:09:45;;;;;;;15.15;9.8;;;;;;;8.071991;71.17123;99344;;;;
2021/10/17 08:29:42;;;;;;;14.8;12.1;;;;;;;8.921722;68.00504;99346;;;;
2021/10/17 08:39:41;;;;;;;14;10.9;;;;;;;9.541952;67.4959;99346;;;;
2021/10/17 08:49:41;;;;;;;15.6;9.9;;;;;;;10.01168;66.18746;99346;;;;
2021/10/17 08:59:38;;;;;;;13.8;9.9;;;;;;;10.39188;63.14408;99338;;;;
2021/10/17 09:09:37;;;;;;;10.8;8.1;;;;;;;10.56172;61.48737;99342;;;;
2021/10/17 09:19:39;;;;;;;16.2;8.1;;;;;;;10.99191;60.66934;99340;;;;
2021/10/17 09:29:35;;;;;;;14.5;6.7;;;;;;;11.22168;58.86597;99340;;;;
2021/10/17 09:39:37;;;;;;;8.5;3.2;;;;;;;11.75184;53.97164;99326;;;;
2021/10/17 09:49:34;;;;;;;8.9;4.4;;;;;;;12.4318;54.02802;99324;;;;
2021/10/17 09:59:33;;;;;;;6.2;4.6;;;;;;;12.55184;52.94324;99316;;;;
2021/10/17 10:09:32;;;;;;;8;3.5;;;;;;;12.69214;48.90238;99318;;;;
2021/10/17 10:19:31;;;;;;;8.05;3.95;;;;;;;12.41226;48.86636;99312;;;;
2021/10/17 10:39:33;;;;;;;6.8;3.6;;;;;;;12.91191;47.80865;99303;;;;
2021/10/17 10:49:29;;;;;;;6.8;4.7;;;;;;;12.8021;49.04495;99303;;;;
2021/10/17 10:59:29;;;;;;;8.2;4.2;;;;;;;13.01207;48.41443;99301;;;;
2021/10/17 11:09:27;;;;;;;7.2;4.4;;;;;;;12.39214;47.23384;99291;;;;
2021/10/17 11:19:26;;;;;;;7.5;4.1;;;;;;;12.66203;48.34058;99289;;;;
2021/10/17 11:29:26;;;;;;;5.4;3.8;;;;;;;12.8418;47.16247;99283;;;;
2021/10/17 11:39:25;;;;;;;5.7;3.9;;;;;;;12.46188;47.2473;99265;;;;
2021/10/17 11:49:24;;;;;;;7.5;5;;;;;;;12.86222;47.8187;99251;;;;
2021/10/17 11:59:24;;;;;;;6.7;3.9;;;;;;;13.10172;46.4805;99240;;;;
2021/10/17 12:09:23;;;;;;;6.6;3.6;;;;;;;12.91191;47.16223;99222;;;;
2021/10/17 12:19:29;;;;;;;9.5;4;;;;;;;12.73199;48.66962;99210;;;;
2021/10/17 12:29:22;;;;;;;7.4;4.2;;;;;;;13.10226;48.66451;99212;;;;
2021/10/17 12:39:21;;;;;;;4.6;2.9;;;;;;;13.18211;47.01245;99196;;;;
2021/10/17 13:09:18;;;;;;;7.9;4.6;;;;;;;13.34184;45.90343;99195;;;;
2021/10/17 13:19:20;;;;;;;6.2;3.8;;;;;;;13.35203;45.8648;99198;;;;
2021/10/17 13:29:17;;;;;;;6.5;3.9;;;;;;;13.27211;47.006;99196;;;;
2021/10/17 13:39:16;;;;;;;6.4;4.6;;;;;;;13.36207;46.58863;99191;;;;
2021/10/17 13:49:15;;;;;;;7.75;4.55;;;;;;;13.10226;47.35211;99177;;;;
2021/10/17 13:59:14;;;;;;;8.6;4.2;;;;;;;12.72214;49.1577;99167;;;;
2021/10/17 14:09:14;;;;;;;8;7.2;;;;;;;12.48184;49.38666;99171;;;;
2021/10/17 14:19:13;;;;;;;10.5;6.9;;;;;;;12.34207;49.99806;99167;;;;
2021/10/17 14:29:12;;;;;;;11.15;7;;;;;;;12.37191;52.52406;99171;;;;
2021/10/17 14:39:11;;;;;;;13.1;7.5;;;;;;;12.07188;49.94203;99179;;;;
2021/10/17 14:49:10;;;;;;;11.7;7.1;;;;;;;11.71207;51.19362;99175;;;;
2021/10/17 14:59:09;;;;;;;11.53333;7.3;;;;;;;11.32203;51.63625;99177;;;;
2021/10/17 15:09:08;;;;;;;10.9;6.9;;;;;;;10.8818;53.27301;99185;;;;
2021/10/17 15:19:07;;;;;;;16.6;9.6;;;;;;;10.36184;54.65134;99196;;;;
2021/10/17 15:29:06;;;;;;;8.9;7.2;;;;;;;9.592181;57.65617;99200;;;;
2021/10/17 15:49:04;;;;;;;16.55;12;;;;;;;8.341684;62.16936;99214;;;;
2021/10/17 15:59:02;;;;;;;21.1;18.9;;;;;;;7.722105;63.96676;99236;;;;
2021/10/17 16:09:01;;;;;;;34.7;29.8;;;;;;;7.101991;65.75197;99243;;;;
2021/10/17 16:18:59;;;;;;;21.4;17.2;;;;;;;6.732067;66.41811;99255;;;;
2021/10/17 16:28:58;;;;;;;18.3;16.3;;;;;;;6.612257;68.54688;99255;;;;
2021/10/17 16:38:57;;;;;;;19.7;17.6;;;;;;;6.432219;70.84771;99247;;;;
2021/10/17 16:48:55;;;;;;;60.5;53.9;;;;;;;6.431799;71.28287;99245;;;;
2021/10/17 16:58:54;;;;;;;32.5;25.9;;;;;;;6.442029;71.98204;99249;;;;
2021/10/17 17:08:52;;;;;;;33.75;27.6;;;;;;;6.471838;73.02953;99253;;;;
2021/10/17 17:18:50;;;;;;;28.5;24.5;;;;;;;6.55;72.764;99253;;;;
2021/10/17 17:28:49;;;;;;;32.2;29.1;;;;;;;6.6718;72.79791;99247;;;;
2021/10/17 17:38:49;;;;;;;49.2;31.7;;;;;;;6.712067;72.89611;99253;;;;
2021/10/17 17:48:46;;;;;;;31.7;26.9;;;;;;;6.842219;72.40076;99257;;;;
2021/10/17 17:58:45;;;;;;;41.4;32.7;;;;;;;6.881799;72.5018;99255;;;;
2021/10/17 18:08:43;;;;;;;47.75;37.9;;;;;;;6.8518;72.40888;99247;;;;
2021/10/17 18:18:42;;;;;;;50.4;35;;;;;;;6.752029;72.55923;99243;;;;
2021/10/17 18:28:40;;;;;;;46.7;35;;;;;;;6.7518;72.7616;99249;;;;
2021/10/17 18:38:39;;;;;;;57.66667;44.5;;;;;;;6.792105;73.08953;99255;;;;
2021/10/17 18:48:37;;;;;;;50.7;42.6;;;;;;;6.8718;72.41695;99253;;;;
2021/10/17 18:58:36;;;;;;;66.4;54.3;;;;;;;6.9618;72.8746;99261;;;;
2021/10/17 19:08:34;;;;;;;35.1;31.5;;;;;;;6.991838;73.6066;99259;;;;
2021/10/17 19:18:33;;;;;;;38.65;33.25;;;;;;;7.052067;73.41957;99259;;;;
2021/10/17 19:28:31;;;;;;;41.53334;36.33333;;;;;;;7.091761;73.29477;99263;;;;
2021/10/17 19:48:28;;;;;;;49.3;43.9;;;;;;;7.181838;74.44202;99287;;;;
2021/10/17 19:58:26;;;;;;;52.3;41;;;;;;;7.201838;73.86212;99295;;;;
2021/10/17 20:08:25;;;;;;;57.9;51.6;;;;;;;7.222257;74.50846;99303;;;;
2021/10/17 20:18:24;;;;;;;53.7;47.8;;;;;;;7.231761;74.98566;99303;;;;
2021/10/17 20:28:22;;;;;;;54.7;48.8;;;;;;;7.172105;75.34201;99311;;;;
2021/10/17 20:38:29;;;;;;;86.1;62;;;;;;;7.152181;75.10505;99309;;;;
2021/10/17 20:48:21;;;;;;;65.3;54.2;;;;;;;7.032029;76.30943;99309;;;;
2021/10/17 20:58:18;;;;;;;67.60001;56.25;;;;;;;7.042181;76.52541;99305;;;;
2021/10/17 21:08:16;;;;;;;70.9;61.1;;;;;;;7.112181;75.64549;99301;;;;
2021/10/17 21:18:16;;;;;;;62.4;55.6;;;;;;;7.11199;76.78088;99303;;;;
2021/10/17 21:28:13;;;;;;;63;56.2;;;;;;;7.091837;77.08236;99299;;;;
2021/10/17 21:38:12;;;;;;;60.05;53.6;;;;;;;7.121838;77.04742;99295;;;;
2021/10/17 21:58:09;;;;;;;61.8;50.4;;;;;;;7.181761;76.59633;99295;;;;
2021/10/17 22:18:07;;;;;;;52.1;46.4;;;;;;;7.071684;77.02472;99305;;;;
2021/10/17 22:28:04;;;;;;;68.1;48.8;;;;;;;6.982067;78.12856;99309;;;;
2021/10/17 22:38:03;;;;;;;60.4;47.95;;;;;;;7.032143;77.45354;99309;;;;
2021/10/17 22:48:01;;;;;;;50.6;40.1;;;;;;;7.021761;74.45502;99303;;;;
2021/10/17 22:57:59;;;;;;;29.9;22.2;;;;;;;7.041723;73.53685;99299;;;;
2021/10/17 23:07:59;;;;;;;28.9;21.7;;;;;;;7.041761;73.95897;99312;;;;
2021/10/17 23:17:56;;;;;;;27.5;22.9;;;;;;;7.0018;73.73299;99316;;;;
2021/10/17 23:27:55;;;;;;;27.85;21.95;;;;;;;6.9018;73.60526;99318;;;;
2021/10/17 23:37:53;;;;;;;28;22.5;;;;;;;6.691838;73.85503;99328;;;;
2021/10/17 23:47:52;;;;;;;29.9;23.1;;;;;;;6.512067;74.17461;99334;;;;
2021/10/17 23:57:50;;;;;;;29.5;19.5;;;;;;;6.252143;74.56865;99344;;;;
